Res Valles de Guayama, Puerto Rico
Current Conditions -  °F | °C
As of 7:56 AM on Tuesday 21 Oct 2014 (Local Time) from TJSJ Reporting Station
Scattered Clouds Scattered Clouds  
Wind Chill: 83°   Ceiling: Unl
Heat Index: 89°   Visibility: 10mi
Dew Point: 74°   Wind: 0mph
Humidity: 74%   Direction: NA
Pressure: 29.97"   Gusts: NA
Location:  17.9849°N, 66.1175°W
Report Text: TJSJ 211156Z 00000KT 10SM FEW028 SCT065 28/23 A2997 RMK AO2 SLP147 TCU DSNT NW SHRA DSNT NW T02830233 10283 20256 51020
Loading
Personal Weather Stations






























Interactive Weather Map
Tropical Storm Tracking
New forecast layout! Learn more

10-Day Weather Forecast

Advertisements
Track Severe Weather on mobile